createdAt,value
2023-10-10T00:01:08.754Z,100.00
2023-10-10T00:03:41.750Z,100.00
2023-10-10T00:06:11.313Z,100.00
2023-10-10T00:08:42.581Z,100.00
2023-10-10T00:11:16.190Z,100.00
2023-10-10T00:13:44.410Z,100.00
2023-10-10T00:16:26.283Z,100.00
2023-10-10T00:18:57.876Z,100.00
2023-10-10T00:21:25.080Z,100.00
2023-10-10T00:23:54.585Z,100.00
2023-10-10T00:26:24.495Z,100.00
2023-10-10T00:28:55.907Z,100.00
2023-10-10T00:31:24.072Z,100.00
2023-10-10T00:33:52.649Z,100.00
2023-10-10T00:36:23.906Z,100.00
2023-10-10T00:38:51.666Z,100.00
2023-10-10T00:41:18.987Z,100.00
2023-10-10T00:43:46.187Z,100.00
2023-10-10T00:46:13.064Z,100.00
2023-10-10T00:48:39.969Z,100.00
2023-10-10T00:51:12.757Z,100.00
2023-10-10T00:53:46.659Z,100.00
2023-10-10T00:56:15.524Z,100.00
2023-10-10T00:58:43.857Z,100.00
2023-10-10T01:01:15.556Z,100.00
2023-10-10T01:03:47.510Z,100.00
2023-10-10T01:06:33.195Z,100.00
2023-10-10T01:09:05.143Z,100.00
2023-10-10T01:11:31.959Z,100.00
2023-10-10T01:13:58.749Z,100.00
2023-10-10T01:16:26.544Z,100.00
2023-10-10T01:18:58.806Z,100.00
2023-10-10T01:21:34.626Z,100.00
2023-10-10T01:24:02.610Z,100.00
2023-10-10T01:26:38.411Z,100.00
2023-10-10T01:29:25.469Z,100.00
2023-10-10T01:31:53.794Z,100.00
2023-10-10T01:34:41.048Z,100.00
2023-10-10T01:37:23.659Z,100.00
2023-10-10T01:39:56.431Z,100.00
2023-10-10T01:42:39.061Z,100.00
2023-10-10T01:45:10.455Z,100.00
2023-10-10T01:47:41.367Z,100.00
2023-10-10T01:50:09.382Z,100.00
2023-10-10T01:52:37.797Z,100.00
2023-10-10T01:55:06.341Z,100.00
2023-10-10T01:57:33.112Z,100.00
2023-10-10T02:00:07.232Z,100.00
2023-10-10T02:02:38.763Z,100.00
2023-10-10T02:05:06.146Z,100.00
2023-10-10T02:07:33.520Z,100.00
2023-10-10T02:10:14.297Z,100.00
2023-10-10T02:12:45.895Z,100.00
2023-10-10T02:15:14.852Z,100.00
2023-10-10T02:17:52.663Z,100.00
2023-10-10T02:20:29.180Z,100.00
2023-10-10T02:23:03.023Z,100.00
2023-10-10T02:25:39.056Z,100.00
2023-10-10T02:28:21.924Z,100.00
2023-10-10T02:30:53.798Z,100.00
2023-10-10T02:33:21.375Z,100.00
2023-10-10T02:35:56.645Z,100.00
2023-10-10T02:38:33.742Z,100.00
2023-10-10T02:41:34.225Z,100.00
2023-10-10T02:44:07.497Z,100.00
2023-10-10T02:46:37.290Z,100.00
2023-10-10T02:49:23.452Z,100.00
2023-10-10T02:51:52.996Z,100.00
2023-10-10T02:54:28.809Z,100.00
2023-10-10T02:57:00.085Z,100.00
2023-10-10T02:59:39.441Z,100.00
2023-10-10T03:02:20.398Z,100.00
2023-10-10T03:05:04.453Z,100.00
2023-10-10T03:07:31.618Z,100.00
2023-10-10T03:10:24.200Z,100.00
2023-10-10T03:13:06.180Z,100.00
2023-10-10T03:15:34.742Z,100.00
2023-10-10T03:18:10.560Z,100.00
2023-10-10T03:20:38.516Z,100.00
2023-10-10T03:23:25.395Z,100.00
2023-10-10T03:26:06.287Z,100.00
2023-10-10T03:28:42.163Z,100.00
2023-10-10T03:31:12.147Z,100.00
2023-10-10T03:33:39.134Z,100.00
2023-10-10T03:36:14.048Z,100.00
2023-10-10T03:38:43.900Z,100.00
2023-10-10T03:41:40.478Z,100.00
2023-10-10T03:44:25.657Z,100.00
2023-10-10T03:46:59.082Z,100.00
2023-10-10T03:49:45.163Z,100.00
2023-10-10T03:52:30.753Z,100.00
2023-10-10T03:55:16.224Z,100.00
2023-10-10T03:58:01.643Z,100.00
2023-10-10T04:00:47.416Z,100.00
2023-10-10T04:03:32.910Z,100.00
2023-10-10T04:06:22.089Z,100.00
2023-10-10T04:09:07.472Z,100.00
2023-10-10T04:11:52.991Z,100.00
2023-10-10T04:14:38.307Z,100.00
2023-10-10T04:17:23.698Z,100.00
2023-10-10T04:20:09.176Z,100.00
2023-10-10T04:22:54.563Z,100.00
2023-10-10T04:25:39.986Z,100.00
2023-10-10T04:28:25.438Z,100.00
2023-10-10T04:31:10.816Z,100.00
2023-10-10T04:33:56.280Z,100.00
2023-10-10T04:36:41.618Z,100.00
2023-10-10T04:39:27.030Z,100.00
2023-10-10T04:42:14.012Z,100.00
2023-10-10T04:44:59.156Z,100.00
2023-10-10T04:47:44.762Z,100.00
2023-10-10T04:50:37.551Z,100.00
2023-10-10T04:53:23.171Z,100.00
2023-10-10T04:56:08.629Z,100.00
2023-10-10T04:58:53.966Z,100.00
2023-10-10T05:01:39.414Z,100.00
2023-10-10T05:04:24.735Z,100.00
2023-10-10T05:07:10.170Z,100.00
2023-10-10T05:09:55.599Z,100.00
2023-10-10T05:12:40.970Z,100.00
2023-10-10T05:15:26.454Z,100.00
2023-10-10T05:18:11.950Z,100.00
2023-10-10T05:20:57.426Z,100.00
2023-10-10T05:23:36.641Z,100.00
2023-10-10T05:26:06.994Z,100.00
2023-10-10T05:28:34.261Z,100.00
2023-10-10T05:31:04.482Z,100.00
2023-10-10T05:33:32.095Z,100.00
2023-10-10T05:36:00.422Z,100.00
2023-10-10T05:38:27.700Z,100.00
2023-10-10T05:40:55.451Z,100.00
2023-10-10T05:43:28.086Z,100.00
2023-10-10T05:45:55.708Z,100.00
2023-10-10T05:48:23.145Z,100.00
2023-10-10T05:50:50.157Z,100.00
2023-10-10T05:53:18.569Z,100.00
2023-10-10T05:55:51.692Z,100.00
2023-10-10T05:58:19.499Z,100.00
2023-10-10T06:00:50.588Z,100.00
2023-10-10T06:03:18.719Z,100.00
2023-10-10T06:05:46.191Z,100.00
2023-10-10T06:08:16.297Z,100.00
2023-10-10T06:10:43.588Z,100.00
2023-10-10T06:13:13.029Z,100.00
2023-10-10T06:15:40.148Z,100.00
2023-10-10T06:18:13.558Z,100.00
2023-10-10T06:20:51.376Z,100.00
2023-10-10T06:23:29.949Z,100.00
2023-10-10T06:26:00.156Z,100.00
2023-10-10T06:28:37.397Z,100.00
2023-10-10T06:31:11.867Z,100.00
2023-10-10T06:33:42.812Z,100.00
2023-10-10T06:36:40.200Z,100.00
2023-10-10T06:39:06.946Z,100.00
2023-10-10T06:41:39.087Z,100.00
2023-10-10T06:44:06.481Z,100.00
2023-10-10T06:46:33.963Z,100.00
2023-10-10T06:49:05.808Z,100.00
2023-10-10T06:51:34.808Z,100.00
2023-10-10T06:54:04.861Z,100.00
2023-10-10T06:56:57.520Z,100.00
2023-10-10T06:59:28.433Z,99.10
2023-10-10T07:01:58.526Z,99.31
2023-10-10T07:04:28.710Z,98.73
2023-10-10T07:07:02.336Z,98.67
2023-10-10T07:09:30.636Z,98.12
2023-10-10T07:12:10.599Z,98.14
2023-10-10T07:14:55.771Z,97.69
2023-10-10T07:17:28.768Z,98.06
2023-10-10T07:20:01.378Z,97.17
2023-10-10T07:22:29.661Z,97.19
2023-10-10T07:25:07.952Z,97.01
2023-10-10T07:27:37.092Z,97.86
2023-10-10T07:30:17.969Z,96.79
2023-10-10T07:32:52.308Z,95.97
2023-10-10T07:35:26.772Z,96.21
2023-10-10T07:37:54.286Z,96.10
2023-10-10T07:40:21.976Z,95.82
2023-10-10T07:42:59.598Z,96.11
2023-10-10T07:45:34.607Z,96.29
2023-10-10T07:48:02.488Z,96.30
2023-10-10T07:50:36.778Z,95.89
2023-10-10T07:53:08.131Z,94.93
2023-10-10T07:55:54.778Z,94.98
2023-10-10T07:58:37.151Z,94.11
2023-10-10T08:01:11.387Z,94.27
2023-10-10T08:03:45.665Z,94.37
2023-10-10T08:06:20.106Z,94.15
2023-10-10T08:08:50.516Z,93.14
2023-10-10T08:11:28.984Z,92.34
2023-10-10T08:13:56.298Z,90.71
2023-10-10T08:16:27.304Z,88.44
2023-10-10T08:18:54.540Z,89.27
2023-10-10T08:21:23.763Z,88.97
2023-10-10T08:23:57.991Z,87.71
2023-10-10T08:26:30.529Z,88.34
2023-10-10T08:28:57.471Z,88.30
2023-10-10T08:31:24.288Z,86.86
2023-10-10T08:33:51.192Z,86.72
2023-10-10T08:36:25.146Z,87.02
2023-10-10T08:39:00.442Z,86.12
2023-10-10T08:41:32.491Z,85.18
2023-10-10T08:43:59.542Z,85.80
2023-10-10T08:46:31.438Z,85.50
2023-10-10T08:49:06.059Z,84.98
2023-10-10T08:51:35.989Z,86.16
2023-10-10T08:54:14.132Z,86.92
2023-10-10T08:57:01.438Z,84.00
2023-10-10T08:59:30.172Z,84.77
2023-10-10T09:02:21.616Z,84.31
2023-10-10T09:04:52.090Z,84.24
2023-10-10T09:07:24.576Z,84.34
2023-10-10T09:10:06.959Z,82.93
2023-10-10T09:12:57.832Z,82.39
2023-10-10T09:15:25.133Z,82.50
2023-10-10T09:17:57.242Z,82.46
2023-10-10T09:20:29.149Z,82.20
2023-10-10T09:23:03.448Z,81.08
2023-10-10T09:25:42.519Z,80.67
2023-10-10T09:28:12.803Z,81.69
2023-10-10T09:30:46.968Z,81.80
2023-10-10T09:33:31.322Z,81.50
2023-10-10T09:36:09.845Z,81.03
2023-10-10T09:38:48.104Z,80.99
2023-10-10T09:41:34.670Z,80.38
2023-10-10T09:44:23.150Z,80.74
2023-10-10T09:47:05.308Z,81.17
2023-10-10T09:49:46.493Z,81.56
2023-10-10T09:52:39.718Z,81.50
2023-10-10T09:55:13.433Z,81.69
2023-10-10T09:57:59.565Z,82.53
2023-10-10T10:00:34.584Z,81.53
2023-10-10T10:03:21.586Z,80.90
2023-10-10T10:06:02.061Z,81.28
2023-10-10T10:08:45.858Z,80.70
2023-10-10T10:11:27.448Z,81.30
2023-10-10T10:14:18.089Z,80.28
2023-10-10T10:17:15.249Z,80.19
2023-10-10T10:19:49.021Z,80.29
2023-10-10T10:22:20.258Z,80.53
2023-10-10T10:24:49.810Z,80.83
2023-10-10T10:27:33.186Z,80.21
2023-10-10T10:30:20.062Z,77.82
2023-10-10T10:32:53.606Z,77.92
2023-10-10T10:35:22.755Z,75.67
2023-10-10T10:37:59.864Z,75.51
2023-10-10T10:40:43.932Z,75.92
2023-10-10T10:43:15.812Z,75.88
2023-10-10T10:45:52.854Z,74.65
2023-10-10T10:48:35.551Z,74.47
2023-10-10T10:51:29.677Z,73.28
2023-10-10T10:54:00.361Z,74.34
2023-10-10T10:56:32.488Z,72.91
2023-10-10T10:59:14.317Z,71.93
2023-10-10T11:01:46.927Z,71.87
2023-10-10T11:04:26.301Z,71.51
2023-10-10T11:07:02.996Z,69.83
2023-10-10T11:09:30.131Z,69.76
2023-10-10T11:12:08.217Z,70.22
2023-10-10T11:14:48.378Z,69.93
2023-10-10T11:17:20.221Z,69.90
2023-10-10T11:19:48.656Z,69.20
2023-10-10T11:22:36.318Z,67.26
2023-10-10T11:25:06.492Z,67.55
2023-10-10T11:27:45.092Z,67.63
2023-10-10T11:30:14.008Z,66.71
2023-10-10T11:32:48.412Z,66.37
2023-10-10T11:35:27.743Z,64.99
2023-10-10T11:38:01.698Z,63.25
2023-10-10T11:40:32.726Z,64.19
2023-10-10T11:43:07.657Z,63.10
2023-10-10T11:45:42.927Z,62.40
2023-10-10T11:48:17.559Z,61.83
2023-10-10T11:50:48.475Z,62.87
2023-10-10T11:53:28.988Z,63.28
2023-10-10T11:55:56.560Z,62.33
2023-10-10T11:58:37.447Z,63.09
2023-10-10T12:01:07.758Z,63.93
2023-10-10T12:03:41.276Z,64.78
2023-10-10T12:06:16.226Z,65.00
2023-10-10T12:08:48.283Z,65.66
2023-10-10T12:11:22.091Z,65.96
2023-10-10T12:13:51.960Z,66.54
2023-10-10T12:16:25.590Z,68.03
2023-10-10T12:18:56.472Z,68.67
2023-10-10T12:21:24.653Z,69.25
2023-10-10T12:24:01.497Z,69.79
2023-10-10T12:26:31.502Z,70.39
2023-10-10T12:28:58.774Z,70.95
2023-10-10T12:31:25.639Z,71.48
2023-10-10T12:33:55.531Z,71.09
2023-10-10T12:36:31.016Z,69.94
2023-10-10T12:39:00.860Z,69.84
2023-10-10T12:41:29.332Z,69.36
2023-10-10T12:43:56.606Z,69.28
2023-10-10T12:46:23.455Z,70.35
2023-10-10T12:48:53.444Z,68.85
2023-10-10T12:51:24.028Z,67.43
2023-10-10T12:53:51.096Z,66.17
2023-10-10T12:56:18.760Z,64.50
2023-10-10T12:58:53.278Z,61.48
2023-10-10T13:01:27.003Z,61.16
2023-10-10T13:03:54.196Z,61.32
2023-10-10T13:06:24.411Z,60.15
2023-10-10T13:08:53.991Z,59.74
2023-10-10T13:11:21.871Z,60.36
2023-10-10T13:13:58.109Z,61.11
2023-10-10T13:16:43.371Z,61.55
2023-10-10T13:19:11.219Z,59.35
2023-10-10T13:21:38.210Z,58.56
2023-10-10T13:24:13.363Z,58.26
2023-10-10T13:26:41.371Z,57.39
2023-10-10T13:29:09.116Z,57.87
2023-10-10T13:31:39.413Z,57.35
2023-10-10T13:34:06.340Z,57.64
2023-10-10T13:36:35.702Z,57.65
2023-10-10T13:39:08.673Z,58.48
2023-10-10T13:41:38.861Z,59.66
2023-10-10T13:44:05.689Z,60.68
2023-10-10T13:46:34.527Z,60.73
2023-10-10T13:49:01.526Z,61.23
2023-10-10T13:51:29.566Z,61.85
2023-10-10T13:53:59.226Z,63.23
2023-10-10T13:56:32.378Z,61.75
2023-10-10T13:59:01.589Z,62.50
2023-10-10T14:01:31.359Z,62.30
2023-10-10T14:04:05.554Z,60.80
2023-10-10T14:06:47.245Z,59.09
2023-10-10T14:09:23.615Z,57.21
2023-10-10T14:12:08.253Z,57.57
2023-10-10T14:14:35.129Z,56.72
2023-10-10T14:17:02.047Z,56.36
2023-10-10T14:19:28.810Z,56.17
2023-10-10T14:21:55.581Z,57.21
2023-10-10T14:24:25.821Z,58.16
2023-10-10T14:26:52.779Z,58.11
2023-10-10T14:29:20.754Z,60.28
2023-10-10T14:31:47.817Z,60.63
2023-10-10T14:34:25.844Z,60.58
2023-10-10T14:36:55.034Z,61.12
2023-10-10T14:39:37.910Z,61.71
2023-10-10T14:42:04.987Z,62.10
2023-10-10T14:44:33.016Z,62.53
2023-10-10T14:46:59.909Z,62.48
2023-10-10T14:49:33.000Z,61.73
2023-10-10T14:52:08.220Z,61.36
2023-10-10T14:54:39.905Z,60.73
2023-10-10T14:57:07.720Z,60.95
2023-10-10T14:59:35.421Z,61.44
2023-10-10T15:02:02.754Z,61.56
2023-10-10T15:04:33.362Z,61.28
2023-10-10T15:07:01.014Z,61.48
2023-10-10T15:09:28.146Z,61.17
2023-10-10T15:12:00.413Z,61.95
2023-10-10T15:14:27.716Z,61.29
2023-10-10T15:16:55.328Z,61.22
2023-10-10T15:19:22.071Z,61.01
2023-10-10T15:21:49.872Z,61.68
2023-10-10T15:24:17.368Z,62.23
2023-10-10T15:26:49.664Z,62.46
2023-10-10T15:29:18.727Z,62.98
2023-10-10T15:31:46.652Z,63.94
2023-10-10T15:34:17.048Z,62.19
2023-10-10T15:36:45.488Z,60.59
2023-10-10T15:39:13.052Z,60.50
2023-10-10T15:45:21.396Z,58.80
2023-10-10T15:47:56.049Z,59.61
2023-10-10T15:50:23.261Z,59.93
2023-10-10T15:52:50.692Z,61.03
2023-10-10T15:55:24.312Z,60.33
2023-10-10T15:57:54.293Z,60.68
2023-10-10T16:00:34.202Z,61.12
2023-10-10T16:03:07.857Z,61.67
2023-10-10T16:05:42.984Z,62.19
2023-10-10T16:08:10.326Z,62.85
2023-10-10T16:10:39.571Z,63.54
2023-10-10T16:13:08.962Z,64.35
2023-10-10T16:15:35.895Z,65.33
2023-10-10T16:18:05.187Z,66.23
2023-10-10T16:20:37.136Z,66.66
2023-10-10T16:23:09.649Z,68.00
2023-10-10T16:25:38.706Z,68.38
2023-10-10T16:28:09.221Z,69.46
2023-10-10T16:30:37.810Z,70.28
2023-10-10T16:33:04.928Z,71.76
2023-10-10T16:35:34.220Z,72.21
2023-10-10T16:38:03.474Z,73.81
2023-10-10T16:40:32.904Z,75.11
2023-10-10T16:42:59.669Z,76.47
2023-10-10T16:45:33.918Z,76.50
2023-10-10T16:48:02.798Z,77.28
2023-10-10T16:50:29.863Z,78.09
2023-10-10T16:53:10.102Z,78.21
2023-10-10T16:55:38.053Z,79.40
2023-10-10T16:58:04.957Z,79.74
2023-10-10T17:00:31.734Z,80.42
2023-10-10T17:02:58.780Z,80.81
2023-10-10T17:05:25.743Z,81.77
2023-10-10T17:07:52.475Z,81.36
2023-10-10T17:10:19.257Z,81.69
2023-10-10T17:12:46.085Z,82.00
2023-10-10T17:15:20.240Z,81.89
2023-10-10T17:17:47.395Z,82.05
2023-10-10T17:20:17.489Z,81.77
2023-10-10T17:22:49.679Z,82.12
2023-10-10T17:25:16.490Z,82.54
2023-10-10T17:27:45.247Z,82.94
2023-10-10T17:30:15.649Z,82.82
2023-10-10T17:32:43.921Z,83.10
2023-10-10T17:35:11.557Z,83.48
2023-10-10T17:37:38.656Z,83.59
2023-10-10T17:40:14.553Z,83.67
2023-10-10T17:42:50.216Z,83.50
2023-10-10T17:45:17.687Z,84.07
2023-10-10T17:47:44.843Z,84.38
2023-10-10T17:50:12.116Z,84.73
2023-10-10T17:52:38.994Z,84.80
2023-10-10T17:55:06.004Z,84.79
2023-10-10T17:57:32.744Z,84.86
2023-10-10T17:59:59.590Z,84.27
2023-10-10T18:02:26.414Z,84.47
2023-10-10T18:04:53.307Z,84.17
2023-10-10T18:07:23.540Z,84.38
2023-10-10T18:09:55.870Z,83.89
2023-10-10T18:12:23.520Z,83.83
2023-10-10T18:14:56.247Z,83.78
2023-10-10T18:17:26.111Z,83.50
2023-10-10T18:19:52.986Z,83.54
2023-10-10T18:22:19.976Z,83.49
2023-10-10T18:24:48.573Z,83.00
2023-10-10T18:27:17.879Z,83.27
2023-10-10T18:29:44.755Z,82.89
2023-10-10T18:32:11.606Z,82.76
2023-10-10T18:34:42.894Z,83.20
2023-10-10T18:37:12.760Z,82.97
2023-10-10T18:39:39.863Z,82.95
2023-10-10T18:42:10.740Z,82.31
2023-10-10T18:44:38.799Z,82.46
2023-10-10T18:47:05.805Z,81.55
2023-10-10T18:49:35.074Z,81.06
2023-10-10T18:52:02.044Z,81.12
2023-10-10T18:54:32.076Z,80.90
2023-10-10T18:57:02.095Z,80.28
2023-10-10T18:59:29.382Z,79.53
2023-10-10T19:01:57.082Z,79.14
2023-10-10T19:04:23.981Z,78.30
2023-10-10T19:06:50.972Z,78.37
2023-10-10T19:09:19.605Z,77.71
2023-10-10T19:11:46.597Z,77.33
2023-10-10T19:14:14.480Z,77.01
2023-10-10T19:16:41.681Z,76.65
2023-10-10T19:19:08.991Z,76.52
2023-10-10T19:21:36.102Z,76.45
2023-10-10T19:24:03.102Z,75.89
2023-10-10T19:26:30.278Z,75.95
2023-10-10T19:28:58.276Z,75.74
2023-10-10T19:31:25.207Z,75.69
2023-10-10T19:33:52.378Z,75.71
2023-10-10T19:36:21.467Z,75.90
2023-10-10T19:38:49.116Z,75.41
2023-10-10T19:41:16.206Z,75.90
2023-10-10T19:43:43.208Z,76.06
2023-10-10T19:46:12.998Z,75.81
2023-10-10T19:48:43.958Z,75.76
2023-10-10T19:51:18.539Z,75.96
2023-10-10T19:53:47.420Z,75.95
2023-10-10T19:56:14.408Z,76.19
2023-10-10T19:58:43.244Z,76.26
2023-10-10T20:01:10.428Z,76.51
2023-10-10T20:03:37.663Z,76.56
2023-10-10T20:06:08.128Z,77.00
2023-10-10T20:08:36.180Z,77.32
2023-10-10T20:11:04.872Z,77.49
2023-10-10T20:13:31.707Z,78.01
2023-10-10T20:15:58.466Z,78.04
2023-10-10T20:18:26.479Z,78.30
2023-10-10T20:20:53.461Z,78.30
2023-10-10T20:23:21.881Z,78.68
2023-10-10T20:25:52.576Z,78.90
2023-10-10T20:28:19.456Z,78.92
2023-10-10T20:30:47.013Z,79.22
2023-10-10T20:33:17.678Z,79.14
2023-10-10T20:35:45.951Z,79.48
2023-10-10T20:38:13.582Z,79.40
2023-10-10T20:40:44.737Z,79.52
2023-10-10T20:43:12.303Z,79.35
2023-10-10T20:45:39.480Z,79.79
2023-10-10T20:48:13.977Z,79.47
2023-10-10T20:50:42.613Z,79.92
2023-10-10T20:53:09.590Z,79.82
2023-10-10T20:55:36.670Z,80.17
2023-10-10T20:58:03.450Z,80.22
2023-10-10T21:00:30.223Z,80.06
2023-10-10T21:03:02.282Z,79.63
2023-10-10T21:05:29.282Z,80.04
2023-10-10T21:07:56.436Z,79.23
2023-10-10T21:10:24.745Z,79.56
2023-10-10T21:12:51.841Z,79.47
2023-10-10T21:15:21.323Z,78.64
2023-10-10T21:18:00.487Z,78.56
2023-10-10T21:20:29.227Z,78.15
2023-10-10T21:23:00.540Z,77.96
2023-10-10T21:25:27.917Z,77.48
2023-10-10T21:27:57.745Z,77.59
2023-10-10T21:30:29.151Z,77.52
2023-10-10T21:32:58.027Z,77.23
2023-10-10T21:35:31.538Z,77.25
2023-10-10T21:38:03.683Z,77.35
2023-10-10T21:40:34.088Z,77.37
2023-10-10T21:43:01.109Z,77.57
2023-10-10T21:45:34.018Z,77.84
2023-10-10T21:48:05.320Z,77.95
2023-10-10T21:50:32.820Z,77.81
2023-10-10T21:53:01.758Z,77.74
2023-10-10T21:55:29.488Z,77.84
2023-10-10T21:57:57.006Z,77.82
2023-10-10T22:00:31.508Z,78.02
2023-10-10T22:03:05.295Z,77.97
2023-10-10T22:05:33.281Z,78.25
2023-10-10T22:08:00.864Z,78.22
2023-10-10T22:10:28.131Z,78.06
2023-10-10T22:12:56.159Z,78.18
2023-10-10T22:15:26.622Z,78.18
2023-10-10T22:17:58.039Z,78.31
2023-10-10T22:20:29.151Z,78.59
2023-10-10T22:22:56.109Z,78.71
2023-10-10T22:25:23.535Z,78.49
2023-10-10T22:27:52.997Z,78.61
2023-10-10T22:30:27.721Z,78.54
2023-10-10T22:32:57.444Z,78.60
2023-10-10T22:35:27.773Z,78.33
2023-10-10T22:37:57.490Z,78.01
2023-10-10T22:40:28.255Z,78.03
2023-10-10T22:43:03.149Z,77.86
2023-10-10T22:45:34.342Z,77.60
2023-10-10T22:48:03.032Z,77.80
2023-10-10T22:50:33.604Z,77.49
2023-10-10T22:53:05.154Z,77.19
2023-10-10T22:55:36.075Z,76.99
2023-10-10T22:58:10.230Z,76.88
2023-10-10T23:00:38.283Z,76.67
2023-10-10T23:03:11.188Z,76.79
2023-10-10T23:05:44.546Z,76.74
2023-10-10T23:08:12.329Z,76.86
2023-10-10T23:10:44.695Z,76.88
2023-10-10T23:13:16.973Z,76.73
2023-10-10T23:15:50.765Z,76.26
2023-10-10T23:18:18.123Z,76.44
2023-10-10T23:20:45.717Z,76.16
2023-10-10T23:23:13.357Z,76.21
2023-10-10T23:25:40.826Z,75.91
2023-10-10T23:28:09.945Z,76.03
2023-10-10T23:30:40.440Z,75.49
2023-10-10T23:33:13.078Z,75.34
2023-10-10T23:35:40.553Z,75.74
2023-10-10T23:38:07.407Z,75.52
2023-10-10T23:40:41.360Z,75.57
2023-10-10T23:43:10.188Z,75.58
2023-10-10T23:45:43.759Z,75.38
2023-10-10T23:48:17.249Z,75.44
2023-10-10T23:50:45.340Z,75.46
2023-10-10T23:53:15.821Z,75.17
2023-10-10T23:55:46.489Z,75.18
2023-10-10T23:58:14.176Z,75.09
